Terminal Aerodrome Forecast
Issued by NWS

Home | Current Version | Previous Version | Text Only | Print | Product List | Glossary On
Versions: 1 2 3 4 5 6 7 8 9 10 11 12 13 14 15 16 17 18 19 20 21 22 23 24 25 26 27 28 29 30
416
FTUS43 KFGF 212339
TAFDVL
TAF
KDVL 212339Z 2200/2224 23004KT P6SM BKN080
      TEMPO 2200/2204 -RA
     FM220700 04005KT 5SM BR OVC060
     FM220900 04006KT 1 1/2SM BR OVC008
     FM221100 03007KT 1 1/2SM -SN BR OVC008
     FM221500 02012KT P6SM OVC008
     FM221600 02013KT P6SM OVC003
     FM222300 35010KT P6SM BKN020=

USA.gov is the U.S. government's official web portal to all federal, state and local government web resources and services.